Bagshot, United Kingdom
Current Conditions -  °F | °C
As of 9:20 AM on Friday 19 Dec 2014 (Local Time) from EGLF Reporting Station
Scattered Clouds Scattered Clouds  
Wind Chill: 44°   Ceiling: Unl
Heat Index: 48°   Visibility: 6mi
Dew Point: 43°   Wind: 10mph
Humidity: 82%   Direction: 280°W
Pressure: 29.94"   Gusts: 26mph
Location:  51.36°N, 0.69°W
Report Text: EGLF 190920Z 28009G23KT 230V330 9999 SCT025 09/06 Q1014
Loading
Personal Weather Stations






























Interactive Weather Map New forecast layout! Learn more

10-Day Weather Forecast

Advertisements
Track Severe Weather on mobile